createdAt,value
2019-02-11T00:00:57.252Z,97475.73
2019-02-11T00:03:08.153Z,97484.45
2019-02-11T00:05:19.002Z,97499.97
2019-02-11T00:07:29.894Z,97505.67
2019-02-11T00:09:40.717Z,97502.64
2019-02-11T00:11:51.519Z,97513.77
2019-02-11T00:14:02.554Z,97503.47
2019-02-11T00:16:13.385Z,97519.48
2019-02-11T00:18:24.154Z,97524.69
2019-02-11T00:20:34.970Z,97529.16
2019-02-11T00:22:45.772Z,97519.02
2019-02-11T00:24:56.602Z,97517.73
2019-02-11T00:27:07.420Z,97521.12
2019-02-11T00:29:18.224Z,97513.86
2019-02-11T00:31:29.139Z,97521.37
2019-02-11T00:33:40.041Z,97516.89
2019-02-11T00:35:50.862Z,97522.81
2019-02-11T00:38:01.657Z,97533.16
2019-02-11T00:40:12.474Z,97530.83
2019-02-11T00:42:23.275Z,97533.55
2019-02-11T00:44:34.094Z,97543.88
2019-02-11T00:46:44.912Z,97544.06
2019-02-11T00:48:55.700Z,97554.76
2019-02-11T00:51:06.560Z,97555.22
2019-02-11T00:53:17.371Z,97570.98
2019-02-11T00:55:28.197Z,97570.30
2019-02-11T00:57:39.018Z,97572.88
2019-02-11T00:59:49.802Z,97566.27
2019-02-11T01:02:00.631Z,97581.06
2019-02-11T01:04:11.439Z,97580.52
2019-02-11T01:06:22.261Z,97581.33
2019-02-11T01:08:33.076Z,97595.67
2019-02-11T01:10:43.868Z,97587.86
2019-02-11T01:12:54.680Z,97597.70
2019-02-11T01:15:27.247Z,97591.95
2019-02-11T01:17:38.094Z,97589.74
2019-02-11T01:19:48.897Z,97596.80
2019-02-11T01:21:59.730Z,97591.20
2019-02-11T01:24:10.521Z,97604.67
2019-02-11T01:26:21.322Z,97605.96
2019-02-11T01:28:32.160Z,97624.30
2019-02-11T01:30:42.954Z,97615.48
2019-02-11T01:32:53.777Z,97609.82
2019-02-11T01:35:46.225Z,97617.86
2019-02-11T01:37:57.037Z,97607.16
2019-02-11T01:40:29.600Z,97614.38
2019-02-11T01:42:40.414Z,97618.06
2019-02-11T01:44:51.217Z,97614.29
2019-02-11T01:49:40.760Z,97623.06
2019-02-11T01:51:51.556Z,97622.47
2019-02-11T01:54:02.386Z,97635.03
2019-02-11T01:56:13.210Z,97643.81
2019-02-11T01:58:24.035Z,97643.81
2019-02-11T02:00:34.927Z,97638.98
2019-02-11T02:02:45.718Z,97644.13
2019-02-11T02:04:56.539Z,97642.89
2019-02-11T02:07:07.471Z,97649.94
2019-02-11T02:09:18.272Z,97645.47
2019-02-11T02:11:29.085Z,97652.22
2019-02-11T02:13:44.860Z,97648.88
2019-02-11T02:15:52.891Z,97655.16
2019-02-11T02:18:03.677Z,97655.08
2019-02-11T02:20:14.500Z,97660.23
2019-02-11T02:22:25.291Z,97665.32
2019-02-11T02:24:36.108Z,97660.69
2019-02-11T02:26:46.904Z,97661.83
2019-02-11T02:28:57.700Z,97665.09
2019-02-11T02:31:08.522Z,97666.30
2019-02-11T02:33:19.323Z,97671.58
2019-02-11T02:35:30.129Z,97668.50
2019-02-11T02:37:40.931Z,97664.69
2019-02-11T02:39:51.756Z,97672.36
2019-02-11T02:42:02.546Z,97676.22
2019-02-11T02:44:13.387Z,97677.50
2019-02-11T02:46:24.215Z,97682.34
2019-02-11T02:48:35.004Z,97677.50
2019-02-11T02:50:45.971Z,97682.42
2019-02-11T02:52:56.803Z,97690.66
2019-02-11T02:55:07.820Z,97697.67
2019-02-11T02:57:18.612Z,97703.00
2019-02-11T02:59:29.438Z,97710.81
2019-02-11T03:01:40.261Z,97707.33
2019-02-11T03:03:51.088Z,97708.28
2019-02-11T03:06:21.833Z,97714.19
2019-02-11T03:08:32.638Z,97714.19
2019-02-11T03:10:43.458Z,97729.89
2019-02-11T03:12:54.252Z,97726.67
2019-02-11T03:15:46.715Z,97734.81
2019-02-11T03:17:57.508Z,97745.69
2019-02-11T03:20:49.978Z,97744.46
2019-02-11T03:23:00.794Z,97750.06
2019-02-11T03:25:11.584Z,97750.02
2019-02-11T03:27:22.405Z,97760.93
2019-02-11T03:29:33.200Z,97760.43
2019-02-11T03:32:25.666Z,97760.25
2019-02-11T03:34:36.456Z,97783.31
2019-02-11T03:36:47.309Z,97782.47
2019-02-11T03:38:58.242Z,97767.99
2019-02-11T03:41:09.053Z,97771.28
2019-02-11T03:43:19.860Z,97774.33
2019-02-11T03:45:30.685Z,97779.92
2019-02-11T03:47:41.492Z,97786.84
2019-02-11T03:49:52.281Z,97797.80
2019-02-11T03:52:03.186Z,97795.80
2019-02-11T03:54:14.105Z,97811.28
2019-02-11T03:56:24.931Z,97809.92
2019-02-11T03:58:35.779Z,97811.05
2019-02-11T04:00:46.574Z,97812.08
2019-02-11T04:02:57.503Z,97817.77
2019-02-11T04:05:08.393Z,97816.22
2019-02-11T04:07:19.187Z,97825.17
2019-02-11T04:09:30.023Z,97822.45
2019-02-11T04:12:00.695Z,97815.47
2019-02-11T04:14:11.496Z,97815.47
2019-02-11T04:16:22.290Z,97820.26
2019-02-11T04:18:33.103Z,97823.66
2019-02-11T04:20:43.910Z,97833.36
2019-02-11T04:22:54.725Z,97832.30
2019-02-11T04:25:47.203Z,97837.16
2019-02-11T04:27:58.032Z,97846.94
2019-02-11T04:30:08.862Z,97855.67
2019-02-11T04:32:19.655Z,97853.25
2019-02-11T04:34:30.487Z,97857.94
2019-02-11T04:36:41.293Z,97860.32
2019-02-11T04:38:52.100Z,97859.83
2019-02-11T04:41:02.891Z,97876.45
2019-02-11T04:43:13.687Z,97874.33
2019-02-11T04:45:24.517Z,97882.52
2019-02-11T04:47:35.311Z,97884.14
2019-02-11T04:49:46.107Z,97893.06
2019-02-11T04:51:58.817Z,97899.38
2019-02-11T04:54:09.625Z,97904.92
2019-02-11T04:56:20.464Z,97904.02
2019-02-11T04:58:31.277Z,97899.27
2019-02-11T05:00:42.121Z,97906.13
2019-02-11T05:02:52.923Z,97912.27
2019-02-11T05:05:45.386Z,97911.99
2019-02-11T05:07:56.197Z,97914.56
2019-02-11T05:10:48.665Z,97917.20
2019-02-11T05:12:59.464Z,97929.91
2019-02-11T05:15:10.587Z,97930.88
2019-02-11T05:17:21.394Z,97934.11
2019-02-11T05:19:32.189Z,97934.14
2019-02-11T05:21:42.990Z,97947.44
2019-02-11T05:23:53.792Z,97955.86
2019-02-11T05:26:04.624Z,97954.58
2019-02-11T05:28:15.416Z,97970.67
2019-02-11T05:30:26.244Z,97961.45
2019-02-11T05:32:37.046Z,97965.41
2019-02-11T05:34:47.831Z,97966.80
2019-02-11T05:36:58.659Z,97977.03
2019-02-11T05:39:29.352Z,97976.41
2019-02-11T05:41:40.160Z,97976.41
2019-02-11T05:43:50.972Z,97977.38
2019-02-11T05:46:01.773Z,97983.73
2019-02-11T05:48:12.623Z,97988.37
2019-02-11T05:50:23.399Z,97999.58
2019-02-11T05:52:34.236Z,98010.23
2019-02-11T05:54:45.032Z,98015.02
2019-02-11T05:56:55.868Z,98018.45
2019-02-11T05:59:06.674Z,98020.61
2019-02-11T06:03:49.846Z,98032.03
2019-02-11T06:06:00.640Z,98047.02
2019-02-11T06:08:11.464Z,98040.88
2019-02-11T06:10:22.275Z,98041.43
2019-02-11T06:12:33.083Z,98049.00
2019-02-11T06:14:43.898Z,98044.25
2019-02-11T06:16:54.702Z,98050.05
2019-02-11T06:19:05.512Z,98043.14
2019-02-11T06:21:16.305Z,98050.36
2019-02-11T06:23:27.137Z,98049.17
2019-02-11T06:25:37.951Z,98062.34
2019-02-11T06:27:48.759Z,98064.80
2019-02-11T06:29:59.555Z,98066.33
2019-02-11T06:32:10.353Z,98073.48
2019-02-11T06:34:21.191Z,98081.02
2019-02-11T06:36:31.989Z,98084.20
2019-02-11T06:38:42.798Z,98091.70
2019-02-11T06:40:53.590Z,98095.01
2019-02-11T06:43:04.408Z,98092.30
2019-02-11T06:45:15.219Z,98097.58
2019-02-11T06:47:26.039Z,98106.12
2019-02-11T06:49:36.850Z,98108.89
2019-02-11T06:51:47.659Z,98126.81
2019-02-11T06:53:58.475Z,98124.48
2019-02-11T06:56:09.275Z,98135.67
2019-02-11T06:58:20.092Z,98139.84
2019-02-11T07:00:30.919Z,98138.45
2019-02-11T07:02:41.714Z,98152.69
2019-02-11T07:04:52.532Z,98156.44
2019-02-11T07:07:03.332Z,98165.50
2019-02-11T07:09:14.144Z,98174.88
2019-02-11T07:11:24.941Z,98186.41
2019-02-11T07:13:35.732Z,98192.03
2019-02-11T07:15:46.557Z,98200.19
2019-02-11T07:17:57.348Z,98212.84
2019-02-11T07:20:49.851Z,98214.32
2019-02-11T07:23:00.652Z,98228.06
2019-02-11T07:25:11.474Z,98232.34
2019-02-11T07:27:22.289Z,98236.00
2019-02-11T07:29:33.127Z,98243.61
2019-02-11T07:31:43.931Z,98247.63
2019-02-11T07:33:54.720Z,98249.04
2019-02-11T07:36:05.544Z,98254.63
2019-02-11T07:38:16.354Z,98254.63
2019-02-11T07:40:27.280Z,98253.31
2019-02-11T07:42:57.959Z,98263.91
2019-02-11T07:45:50.418Z,98268.38
2019-02-11T07:48:01.323Z,98274.86
2019-02-11T07:50:12.234Z,98277.72
2019-02-11T07:52:26.984Z,98274.80
2019-02-11T07:54:35.863Z,98293.27
2019-02-11T07:56:46.708Z,98294.45
2019-02-11T07:58:57.522Z,98303.71
2019-02-11T08:01:08.354Z,98302.04
2019-02-11T08:03:19.159Z,98308.34
2019-02-11T08:05:29.945Z,98319.17
2019-02-11T08:07:40.789Z,98317.53
2019-02-11T08:12:23.958Z,98328.77
2019-02-11T08:14:34.812Z,98341.66
2019-02-11T08:16:45.587Z,98334.36
2019-02-11T08:18:56.409Z,98337.23
2019-02-11T08:21:07.218Z,98342.14
2019-02-11T08:23:18.064Z,98343.75
2019-02-11T08:25:28.888Z,98355.17
2019-02-11T08:27:39.710Z,98354.04
2019-02-11T08:29:50.501Z,98353.59
2019-02-11T08:34:18.166Z,98371.49
2019-02-11T08:36:28.982Z,98374.29
2019-02-11T08:38:39.807Z,98377.22
2019-02-11T08:40:50.631Z,98384.96
2019-02-11T08:43:01.441Z,98387.59
2019-02-11T08:45:12.240Z,98391.75
2019-02-11T08:47:23.045Z,98383.94
2019-02-11T08:49:34.065Z,98390.75
2019-02-11T08:51:44.849Z,98392.03
2019-02-11T08:53:55.777Z,98405.64
2019-02-11T08:56:06.580Z,98406.80
2019-02-11T08:58:17.392Z,98412.81
2019-02-11T09:01:09.856Z,98408.08
2019-02-11T09:03:20.694Z,98412.97
2019-02-11T09:05:31.482Z,98426.35
2019-02-11T09:07:42.309Z,98420.44
2019-02-11T09:09:53.241Z,98432.23
2019-02-11T09:12:04.032Z,98437.83
2019-02-11T09:14:14.871Z,98441.24
2019-02-11T09:16:25.665Z,98448.03
2019-02-11T09:18:36.480Z,98450.77
2019-02-11T09:20:47.273Z,98454.56
2019-02-11T09:22:58.071Z,98461.47
2019-02-11T09:25:50.536Z,98465.66
2019-02-11T09:28:01.331Z,98471.67
2019-02-11T09:30:32.024Z,98478.72
2019-02-11T09:32:42.821Z,98478.55
2019-02-11T09:34:53.740Z,98488.30
2019-02-11T09:37:04.533Z,98478.94
2019-02-11T09:39:15.336Z,98488.50
2019-02-11T09:41:26.167Z,98492.52
2019-02-11T09:43:36.962Z,98497.98
2019-02-11T09:45:47.814Z,98494.55
2019-02-11T09:47:58.725Z,98497.86
2019-02-11T09:50:51.206Z,98491.61
2019-02-11T09:53:43.646Z,98503.30
2019-02-11T09:55:54.457Z,98516.10
2019-02-11T09:58:05.288Z,98519.97
2019-02-11T10:00:16.255Z,98528.14
2019-02-11T10:02:27.057Z,98529.81
2019-02-11T10:04:37.942Z,98530.68
2019-02-11T10:06:48.759Z,98528.78
2019-02-11T10:08:59.559Z,98536.86
2019-02-11T10:11:10.377Z,98545.70
2019-02-11T10:13:21.186Z,98546.16
2019-02-11T10:15:32.008Z,98547.28
2019-02-11T10:17:42.899Z,98561.00
2019-02-11T10:19:53.709Z,98564.77
2019-02-11T10:22:04.511Z,98576.09
2019-02-11T10:24:15.329Z,98579.47
2019-02-11T10:26:26.145Z,98587.33
2019-02-11T10:28:36.977Z,98587.16
2019-02-11T10:30:47.771Z,98589.86
2019-02-11T10:32:58.629Z,98591.33
2019-02-11T10:35:51.104Z,98598.47
2019-02-11T10:38:02.011Z,98597.37
2019-02-11T10:42:45.172Z,98604.83
2019-02-11T10:48:01.888Z,98607.58
2019-02-11T10:50:54.800Z,98617.37
2019-02-11T10:53:05.626Z,98617.52
2019-02-11T10:55:58.087Z,98612.74
2019-02-11T10:58:09.009Z,98621.28
2019-02-11T11:01:01.467Z,98630.38
2019-02-11T11:03:12.283Z,98630.41
2019-02-11T11:05:23.097Z,98638.91
2019-02-11T11:07:33.929Z,98653.96
2019-02-11T11:09:44.753Z,98661.45
2019-02-11T11:11:55.654Z,98653.36
2019-02-11T11:14:06.460Z,98659.22
2019-02-11T11:16:17.277Z,98657.31
2019-02-11T11:18:28.094Z,98660.63
2019-02-11T11:20:38.876Z,98660.13
2019-02-11T11:22:49.677Z,98664.66
2019-02-11T11:25:00.472Z,98662.28
2019-02-11T11:27:11.386Z,98659.35
2019-02-11T11:29:22.198Z,98660.07
2019-02-11T11:31:33.008Z,98661.42
2019-02-11T11:33:43.947Z,98672.22
2019-02-11T11:35:54.742Z,98678.38
2019-02-11T11:38:05.582Z,98677.57
2019-02-11T11:40:58.070Z,98688.42
2019-02-11T11:43:08.883Z,98684.11
2019-02-11T11:47:57.885Z,98700.09
2019-02-11T11:50:30.500Z,98704.11
2019-02-11T11:52:41.289Z,98710.56
2019-02-11T11:54:52.254Z,98716.44
2019-02-11T11:57:03.527Z,98717.85
2019-02-11T11:59:14.348Z,98718.63
2019-02-11T12:01:47.012Z,98717.41
2019-02-11T12:03:58.001Z,98726.30
2019-02-11T12:06:08.936Z,98734.57
2019-02-11T12:08:19.748Z,98737.59
2019-02-11T12:10:30.569Z,98735.31
2019-02-11T12:12:41.376Z,98725.02
2019-02-11T12:14:52.204Z,98725.84
2019-02-11T12:17:03.616Z,98731.17
2019-02-11T12:19:15.713Z,98727.83
2019-02-11T12:21:26.550Z,98730.89
2019-02-11T12:23:37.362Z,98734.25
2019-02-11T12:25:48.196Z,98727.99
2019-02-11T12:27:59.003Z,98728.47
2019-02-11T12:30:53.710Z,98730.98
2019-02-11T12:33:04.641Z,98729.50
2019-02-11T12:35:15.475Z,98741.11
2019-02-11T12:37:26.261Z,98740.48
2019-02-11T12:39:37.098Z,98735.23
2019-02-11T12:41:47.905Z,98737.54
2019-02-11T12:43:58.895Z,98745.91
2019-02-11T12:46:09.761Z,98751.81
2019-02-11T12:48:20.577Z,98749.06
2019-02-11T12:50:31.367Z,98750.80
2019-02-11T12:52:42.234Z,98751.05
2019-02-11T12:54:53.024Z,98750.11
2019-02-11T12:57:03.853Z,98750.25
2019-02-11T12:59:14.656Z,98753.10
2019-02-11T13:01:25.501Z,98758.78
2019-02-11T13:03:36.438Z,98762.75
2019-02-11T13:06:07.129Z,98765.70
2019-02-11T13:08:17.950Z,98765.70
2019-02-11T13:10:28.758Z,98762.02
2019-02-11T13:12:39.868Z,98761.20
2019-02-11T13:14:52.332Z,98768.01
2019-02-11T13:17:15.017Z,98769.47
2019-02-11T13:19:15.980Z,98774.81
2019-02-11T13:21:26.797Z,98778.48
2019-02-11T13:23:37.611Z,98786.33
2019-02-11T13:25:48.428Z,98786.81
2019-02-11T13:27:59.252Z,98789.36
2019-02-11T13:30:29.918Z,98783.81
2019-02-11T13:32:40.788Z,98790.78
2019-02-11T13:34:51.645Z,98790.98
2019-02-11T13:37:02.431Z,98786.80
2019-02-11T13:39:13.295Z,98791.27
2019-02-11T13:41:24.130Z,98795.04
2019-02-11T13:43:34.987Z,98799.27
2019-02-11T13:45:45.793Z,98804.53
2019-02-11T13:47:58.410Z,98797.95
2019-02-11T13:50:50.945Z,98805.03
2019-02-11T13:53:21.679Z,98812.28
2019-02-11T13:55:32.469Z,98818.53
2019-02-11T13:57:43.307Z,98836.31
2019-02-11T13:59:54.245Z,98833.30
2019-02-11T14:02:05.144Z,98834.41
2019-02-11T14:04:16.011Z,98842.66
2019-02-11T14:06:26.910Z,98846.05
2019-02-11T14:08:37.866Z,98848.09
2019-02-11T14:10:48.756Z,98851.54
2019-02-11T14:12:59.717Z,98850.60
2019-02-11T14:15:10.642Z,98859.95
2019-02-11T14:17:21.434Z,98859.50
2019-02-11T14:19:32.284Z,98877.50
2019-02-11T14:21:43.088Z,98874.77
2019-02-11T14:23:53.933Z,98891.95
2019-02-11T14:26:04.943Z,98888.92
2019-02-11T14:28:15.855Z,98898.66
2019-02-11T14:30:26.779Z,98899.53
2019-02-11T14:32:37.583Z,98899.88
2019-02-11T14:34:48.423Z,98908.83
2019-02-11T14:36:59.232Z,98916.59
2019-02-11T14:39:51.723Z,98913.81
2019-02-11T14:42:02.722Z,98924.73
2019-02-11T14:44:14.184Z,98932.56
2019-02-11T14:46:26.344Z,98928.94
2019-02-11T14:48:37.177Z,98941.30
2019-02-11T14:50:47.965Z,98933.19
2019-02-11T14:52:58.783Z,98937.52
2019-02-11T14:55:51.272Z,98937.52
2019-02-11T14:58:02.102Z,98933.62
2019-02-11T15:00:54.579Z,98942.88
2019-02-11T15:03:05.441Z,98938.80
2019-02-11T15:05:57.951Z,98949.96
2019-02-11T15:08:08.758Z,98958.06
2019-02-11T15:10:19.844Z,98958.96
2019-02-11T15:12:34.195Z,98963.70
2019-02-11T15:14:45.020Z,98974.08
2019-02-11T15:16:55.859Z,98982.50
2019-02-11T15:19:06.664Z,98986.52
2019-02-11T15:21:17.457Z,98991.51
2019-02-11T15:23:28.281Z,98989.70
2019-02-11T15:25:39.075Z,98989.23
2019-02-11T15:30:48.341Z,98988.75
2019-02-11T15:32:59.190Z,98991.33
2019-02-11T15:35:10.109Z,98998.73
2019-02-11T15:37:20.973Z,99000.75
2019-02-11T15:39:31.792Z,99000.78
2019-02-11T15:41:42.597Z,99007.34
2019-02-11T15:43:53.426Z,99011.69
2019-02-11T15:46:45.936Z,99012.53
2019-02-11T15:48:56.779Z,99010.86
2019-02-11T15:51:07.578Z,99018.31
2019-02-11T15:53:18.412Z,99019.16
2019-02-11T15:55:29.238Z,99015.88
2019-02-11T15:57:40.063Z,99025.30
2019-02-11T15:59:50.934Z,99037.72
2019-02-11T16:02:01.772Z,99033.12
2019-02-11T16:04:12.625Z,99045.54
2019-02-11T16:06:23.429Z,99051.62
2019-02-11T16:08:34.267Z,99062.97
2019-02-11T16:10:45.064Z,99062.45
2019-02-11T16:12:55.972Z,99069.34
2019-02-11T16:15:48.454Z,99065.64
2019-02-11T16:17:59.272Z,99070.81
2019-02-11T16:20:51.757Z,99075.95
2019-02-11T16:23:02.680Z,99070.95
2019-02-11T16:25:55.150Z,99075.33
2019-02-11T16:28:05.962Z,99073.22
2019-02-11T16:30:58.437Z,99078.22
2019-02-11T16:33:09.251Z,99079.61
2019-02-11T16:35:20.090Z,99090.68
2019-02-11T16:37:30.978Z,99087.82
2019-02-11T16:39:41.781Z,99097.04
2019-02-11T16:41:52.610Z,99104.86
2019-02-11T16:44:03.460Z,99103.02
2019-02-11T16:46:14.262Z,99114.20
2019-02-11T16:48:25.082Z,99120.16
2019-02-11T16:50:35.925Z,99131.70
2019-02-11T16:52:46.705Z,99122.57
2019-02-11T16:54:57.527Z,99121.09
2019-02-11T16:57:08.356Z,99123.06
2019-02-11T16:59:19.152Z,99121.91
2019-02-11T17:01:30.029Z,99131.03
2019-02-11T17:03:40.820Z,99126.77
2019-02-11T17:05:51.644Z,99141.72
2019-02-11T17:08:02.567Z,99149.96
2019-02-11T17:10:55.019Z,99156.52
2019-02-11T17:13:05.836Z,99153.50
2019-02-11T17:15:58.329Z,99163.48
2019-02-11T17:18:09.119Z,99157.48
2019-02-11T17:20:19.968Z,99160.53
2019-02-11T17:22:30.780Z,99161.42
2019-02-11T17:24:41.595Z,99165.16
2019-02-11T17:26:52.432Z,99164.78
2019-02-11T17:29:03.368Z,99176.38
2019-02-11T17:33:52.963Z,99183.31
2019-02-11T17:36:03.780Z,99174.92
2019-02-11T17:38:14.683Z,99155.23
2019-02-11T17:40:25.482Z,99149.63
2019-02-11T17:42:36.294Z,99148.91
2019-02-11T17:44:47.129Z,99156.27
2019-02-11T17:46:58.060Z,99157.15
2019-02-11T17:49:17.362Z,99170.53
2019-02-11T17:51:21.736Z,99178.39
2019-02-11T17:53:32.672Z,99189.20
2019-02-11T17:55:43.468Z,99195.97
2019-02-11T17:57:54.312Z,99213.94
2019-02-11T18:00:46.833Z,99212.12
2019-02-11T18:02:57.837Z,99213.09
2019-02-11T18:05:08.785Z,99220.05
2019-02-11T18:07:19.573Z,99217.85
2019-02-11T18:09:30.419Z,99231.19
2019-02-11T18:12:22.875Z,99247.02
2019-02-11T18:14:33.710Z,99243.55
2019-02-11T18:16:44.508Z,99256.86
2019-02-11T18:18:55.411Z,99257.77
2019-02-11T18:21:06.233Z,99266.73
2019-02-11T18:23:17.133Z,99265.48
2019-02-11T18:25:28.022Z,99266.88
2019-02-11T18:27:38.776Z,99266.45
2019-02-11T18:29:49.589Z,99267.22
2019-02-11T18:32:00.419Z,99270.64
2019-02-11T18:34:11.262Z,99277.02
2019-02-11T18:36:22.065Z,99291.56
2019-02-11T18:38:32.915Z,99285.92
2019-02-11T18:40:43.770Z,99297.73
2019-02-11T18:42:54.630Z,99297.00
2019-02-11T18:45:47.132Z,99301.77
2019-02-11T18:47:57.933Z,99308.09
2019-02-11T18:50:50.468Z,99307.19
2019-02-11T18:53:01.276Z,99311.11
2019-02-11T18:55:53.758Z,99307.63
2019-02-11T18:58:04.728Z,99321.86
2019-02-11T19:00:36.528Z,99319.18
2019-02-11T19:03:28.977Z,99317.59
2019-02-11T19:05:39.840Z,99324.44
2019-02-11T19:10:43.023Z,99335.63
2019-02-11T19:12:53.847Z,99343.77
2019-02-11T19:15:30.240Z,99342.08
2019-02-11T19:17:41.153Z,99343.86
2019-02-11T19:19:52.009Z,99352.42
2019-02-11T19:24:20.395Z,99359.70
2019-02-11T19:26:31.349Z,99370.80
2019-02-11T19:28:42.168Z,99378.47
2019-02-11T19:30:53.024Z,99379.20
2019-02-11T19:33:03.844Z,99381.88
2019-02-11T19:35:14.702Z,99386.99
2019-02-11T19:39:42.759Z,99390.52
2019-02-11T19:41:53.652Z,99395.11
2019-02-11T19:44:04.453Z,99401.50
2019-02-11T19:46:15.318Z,99401.55
2019-02-11T19:48:26.133Z,99406.31
2019-02-11T19:50:36.941Z,99402.94
2019-02-11T19:52:47.983Z,99404.17
2019-02-11T19:54:58.808Z,99402.89
2019-02-11T19:57:09.670Z,99414.53
2019-02-11T19:59:20.519Z,99428.74
2019-02-11T20:01:31.384Z,99430.98
2019-02-11T20:03:42.246Z,99441.28
2019-02-11T20:05:53.058Z,99439.70
2019-02-11T20:08:03.998Z,99438.41
2019-02-11T20:10:34.678Z,99440.98
2019-02-11T20:12:45.665Z,99449.14
2019-02-11T20:14:56.508Z,99458.52
2019-02-11T20:17:07.401Z,99460.73
2019-02-11T20:19:18.294Z,99467.17
2019-02-11T20:21:29.122Z,99468.37
2019-02-11T20:23:39.934Z,99475.70
2019-02-11T20:25:50.770Z,99475.25
2019-02-11T20:28:01.642Z,99492.88
2019-02-11T20:30:54.094Z,99493.02
2019-02-11T20:33:05.210Z,99497.27
2019-02-11T20:35:16.148Z,99491.25
2019-02-11T20:37:26.949Z,99497.77
2019-02-11T20:39:37.898Z,99498.43
2019-02-11T20:41:48.703Z,99503.14
2019-02-11T20:43:59.587Z,99508.38
2019-02-11T20:46:10.448Z,99507.94
2019-02-11T20:48:21.387Z,99514.33
2019-02-11T20:50:32.202Z,99513.13
2019-02-11T20:52:43.011Z,99514.77
2019-02-11T20:54:53.845Z,99520.05
2019-02-11T20:57:04.660Z,99528.17
2019-02-11T20:59:57.135Z,99533.80
2019-02-11T21:02:08.014Z,99532.19
2019-02-11T21:04:18.869Z,99537.38
2019-02-11T21:06:29.695Z,99539.06
2019-02-11T21:08:40.517Z,99536.13
2019-02-11T21:10:51.363Z,99541.64
2019-02-11T21:13:02.161Z,99539.59
2019-02-11T21:15:54.655Z,99543.84
2019-02-11T21:18:05.537Z,99543.41
2019-02-11T21:20:37.772Z,99549.95
2019-02-11T21:25:41.073Z,99551.87
2019-02-11T21:27:51.958Z,99558.44
2019-02-11T21:30:44.439Z,99563.19
2019-02-11T21:32:55.255Z,99560.64
2019-02-11T21:38:04.575Z,99547.92
2019-02-11T21:40:15.380Z,99547.14
2019-02-11T21:42:26.205Z,99550.22
2019-02-11T21:44:56.903Z,99556.71
2019-02-11T21:47:07.720Z,99556.71
2019-02-11T21:49:18.512Z,99563.61
2019-02-11T21:51:29.339Z,99559.34
2019-02-11T21:53:40.169Z,99555.48
2019-02-11T21:55:51.078Z,99561.03
2019-02-11T21:58:02.011Z,99564.60
2019-02-11T22:00:32.787Z,99554.80
2019-02-11T22:02:43.612Z,99547.98
2019-02-11T22:04:54.416Z,99551.00
2019-02-11T22:07:05.243Z,99541.63
2019-02-11T22:09:16.045Z,99543.29
2019-02-11T22:11:26.864Z,99539.03
2019-02-11T22:13:37.654Z,99544.60
2019-02-11T22:15:48.482Z,99546.33
2019-02-11T22:17:59.318Z,99542.97
2019-02-11T22:20:34.769Z,99554.55
2019-02-11T22:22:43.010Z,99563.66
2019-02-11T22:24:53.890Z,99573.95
2019-02-11T22:27:04.654Z,99580.81
2019-02-11T22:29:15.449Z,99586.80
2019-02-11T22:33:43.121Z,99593.23
2019-02-11T22:35:53.919Z,99595.81
2019-02-11T22:38:04.962Z,99597.53
2019-02-11T22:40:15.860Z,99597.52
2019-02-11T22:42:26.686Z,99596.23
2019-02-11T22:44:37.502Z,99595.83
2019-02-11T22:46:48.317Z,99605.72
2019-02-11T22:48:59.222Z,99604.48
2019-02-11T22:51:10.044Z,99621.19
2019-02-11T22:53:20.906Z,99630.22
2019-02-11T22:55:31.723Z,99635.34
2019-02-11T22:57:42.512Z,99640.92
2019-02-11T22:59:53.327Z,99640.06
2019-02-11T23:04:36.534Z,99646.92
2019-02-11T23:06:47.435Z,99655.48
2019-02-11T23:08:58.350Z,99669.20
2019-02-11T23:11:09.161Z,99671.72
2019-02-11T23:13:19.954Z,99673.84
2019-02-11T23:15:30.779Z,99674.69
2019-02-11T23:17:41.582Z,99670.39
2019-02-11T23:19:52.386Z,99672.52
2019-02-11T23:22:03.206Z,99669.93
2019-02-11T23:24:13.996Z,99672.47
2019-02-11T23:26:24.820Z,99675.48
2019-02-11T23:28:35.633Z,99672.11
2019-02-11T23:30:46.474Z,99676.39
2019-02-11T23:32:57.284Z,99671.72
2019-02-11T23:35:08.116Z,99672.55
2019-02-11T23:37:18.927Z,99674.25
2019-02-11T23:39:29.724Z,99666.61
2019-02-11T23:41:40.644Z,99671.78
2019-02-11T23:43:51.453Z,99676.05
2019-02-11T23:46:02.309Z,99676.09
2019-02-11T23:48:13.109Z,99680.41
2019-02-11T23:50:23.921Z,99690.25
2019-02-11T23:52:34.731Z,99698.37
2019-02-11T23:54:45.529Z,99706.06
2019-02-11T23:56:56.361Z,99713.31
2019-02-11T23:59:07.163Z,99720.19
